Terminal Aerodrome Forecast
Issued by NWS Green Bay, WI

Home | Current Version | Previous Version | Text Only | Print | Product List | Glossary Off
Versions: 1 2 3 4 5 6 7 8 9 10 11 12 13 14 15 16 17 18 19 20 21 22 23 24 25 26 27 28 29 30 31 32 33 34 35 36 37 38

000
FTUS43 KGRB 302300
TAFGRB
TAF
KGRB 302325Z 0100/0124 04005KT P6SM OVC015
     FM010600 VRB03KT 5SM BR SCT008 OVC015
      TEMPO 0109/0113 2SM BR BKN008
     FM011500 14007KT P6SM BKN020
     FM012000 15008KT P6SM SCT030 BKN250=

USA.gov is the U.S. government's official web portal to all federal, state and local government web resources and services.